sensor_id;sensor_type;location;lat;lon;timestamp;temperature;humidity
21403;DHT22;10862;51.886;17.078;2022-12-18T00:00:45;-4.70;99.90
21403;DHT22;10862;51.886;17.078;2022-12-18T00:03:13;-4.70;99.90
21403;DHT22;10862;51.886;17.078;2022-12-18T00:05:49;-4.70;99.90
21403;DHT22;10862;51.886;17.078;2022-12-18T00:08:15;-4.70;99.90
21403;DHT22;10862;51.886;17.078;2022-12-18T00:10:40;-4.70;99.90
21403;DHT22;10862;51.886;17.078;2022-12-18T00:13:06;-4.70;99.90
21403;DHT22;10862;51.886;17.078;2022-12-18T00:15:34;-4.70;99.90
21403;DHT22;10862;51.886;17.078;2022-12-18T00:18:00;-4.80;99.90
21403;DHT22;10862;51.886;17.078;2022-12-18T00:20:25;-4.80;99.90
21403;DHT22;10862;51.886;17.078;2022-12-18T00:22:54;-5.10;99.90
21403;DHT22;10862;51.886;17.078;2022-12-18T00:25:20;-5.10;99.90
21403;DHT22;10862;51.886;17.078;2022-12-18T00:27:45;-5.10;99.90
21403;DHT22;10862;51.886;17.078;2022-12-18T00:30:11;-5.00;99.90
21403;DHT22;10862;51.886;17.078;2022-12-18T00:32:37;-4.90;99.90
21403;DHT22;10862;51.886;17.078;2022-12-18T00:35:04;-4.90;99.90
21403;DHT22;10862;51.886;17.078;2022-12-18T00:37:30;-4.80;99.90
21403;DHT22;10862;51.886;17.078;2022-12-18T00:39:55;-4.90;99.90
21403;DHT22;10862;51.886;17.078;2022-12-18T00:42:21;-4.90;99.90
21403;DHT22;10862;51.886;17.078;2022-12-18T00:45:06;-4.90;99.90
21403;DHT22;10862;51.886;17.078;2022-12-18T00:47:31;-4.90;99.90
21403;DHT22;10862;51.886;17.078;2022-12-18T00:49:57;-5.00;99.90
21403;DHT22;10862;51.886;17.078;2022-12-18T00:52:23;-5.10;99.90
21403;DHT22;10862;51.886;17.078;2022-12-18T00:54:48;-5.30;99.90
21403;DHT22;10862;51.886;17.078;2022-12-18T00:57:14;-5.30;99.90
21403;DHT22;10862;51.886;17.078;2022-12-18T00:59:39;-5.30;99.90
21403;DHT22;10862;51.886;17.078;2022-12-18T01:02:05;-5.20;99.90
21403;DHT22;10862;51.886;17.078;2022-12-18T01:04:32;-5.20;99.90
21403;DHT22;10862;51.886;17.078;2022-12-18T01:06:57;-5.20;99.90
21403;DHT22;10862;51.886;17.078;2022-12-18T01:09:23;-5.30;99.90
21403;DHT22;10862;51.886;17.078;2022-12-18T01:11:49;-5.30;99.90
21403;DHT22;10862;51.886;17.078;2022-12-18T01:14:14;-5.20;99.90
21403;DHT22;10862;51.886;17.078;2022-12-18T01:16:40;-5.30;99.90
21403;DHT22;10862;51.886;17.078;2022-12-18T01:19:06;-5.30;99.90
21403;DHT22;10862;51.886;17.078;2022-12-18T01:21:32;-5.30;99.90
21403;DHT22;10862;51.886;17.078;2022-12-18T01:23:57;-5.30;99.90
21403;DHT22;10862;51.886;17.078;2022-12-18T01:26:24;-5.30;99.90
21403;DHT22;10862;51.886;17.078;2022-12-18T01:28:50;-5.30;99.90
21403;DHT22;10862;51.886;17.078;2022-12-18T01:33:42;-5.10;99.90
21403;DHT22;10862;51.886;17.078;2022-12-18T01:36:14;-5.20;99.90
21403;DHT22;10862;51.886;17.078;2022-12-18T01:38:39;-5.20;99.90
21403;DHT22;10862;51.886;17.078;2022-12-18T01:41:05;-5.20;99.90
21403;DHT22;10862;51.886;17.078;2022-12-18T01:46:17;-5.30;99.90
21403;DHT22;10862;51.886;17.078;2022-12-18T01:48:49;-5.30;99.90
21403;DHT22;10862;51.886;17.078;2022-12-18T01:51:15;-5.30;99.90
21403;DHT22;10862;51.886;17.078;2022-12-18T01:53:42;-5.40;99.90
21403;DHT22;10862;51.886;17.078;2022-12-18T01:56:13;-5.30;99.90
21403;DHT22;10862;51.886;17.078;2022-12-18T01:58:56;-5.20;99.90
21403;DHT22;10862;51.886;17.078;2022-12-18T02:01:25;-5.10;99.90
21403;DHT22;10862;51.886;17.078;2022-12-18T02:03:51;-5.10;99.90
21403;DHT22;10862;51.886;17.078;2022-12-18T02:06:37;-5.10;99.90
21403;DHT22;10862;51.886;17.078;2022-12-18T02:12:03;-5.20;99.90
21403;DHT22;10862;51.886;17.078;2022-12-18T02:14:55;-5.30;99.90
21403;DHT22;10862;51.886;17.078;2022-12-18T02:17:39;-5.30;99.90
21403;DHT22;10862;51.886;17.078;2022-12-18T02:20:22;-5.40;99.90
21403;DHT22;10862;51.886;17.078;2022-12-18T02:26:06;-5.30;99.90
21403;DHT22;10862;51.886;17.078;2022-12-18T02:28:41;-5.20;99.90
21403;DHT22;10862;51.886;17.078;2022-12-18T02:31:11;-5.30;99.90
21403;DHT22;10862;51.886;17.078;2022-12-18T02:33:40;-5.50;99.90
21403;DHT22;10862;51.886;17.078;2022-12-18T02:36:06;-5.40;99.90
21403;DHT22;10862;51.886;17.078;2022-12-18T02:38:33;-5.40;99.90
21403;DHT22;10862;51.886;17.078;2022-12-18T02:41:00;-5.40;99.90
21403;DHT22;10862;51.886;17.078;2022-12-18T02:43:27;-5.50;99.90
21403;DHT22;10862;51.886;17.078;2022-12-18T02:45:57;-5.50;99.90
21403;DHT22;10862;51.886;17.078;2022-12-18T02:48:33;-5.50;99.90
21403;DHT22;10862;51.886;17.078;2022-12-18T02:51:29;-5.50;99.90
21403;DHT22;10862;51.886;17.078;2022-12-18T02:54:10;-5.50;99.90
21403;DHT22;10862;51.886;17.078;2022-12-18T02:56:54;-5.40;99.90
21403;DHT22;10862;51.886;17.078;2022-12-18T02:59:33;-5.40;99.90
21403;DHT22;10862;51.886;17.078;2022-12-18T03:04:41;-5.30;99.90
21403;DHT22;10862;51.886;17.078;2022-12-18T03:07:12;-5.20;99.90
21403;DHT22;10862;51.886;17.078;2022-12-18T03:09:43;-5.30;99.90
21403;DHT22;10862;51.886;17.078;2022-12-18T03:17:27;-5.40;99.90
21403;DHT22;10862;51.886;17.078;2022-12-18T03:19:57;-5.30;99.90
21403;DHT22;10862;51.886;17.078;2022-12-18T03:22:25;-5.20;99.90
21403;DHT22;10862;51.886;17.078;2022-12-18T03:24:54;-5.30;99.90
21403;DHT22;10862;51.886;17.078;2022-12-18T03:27:23;-5.30;99.90
21403;DHT22;10862;51.886;17.078;2022-12-18T03:29:55;-5.30;99.90
21403;DHT22;10862;51.886;17.078;2022-12-18T03:32:31;-5.20;99.90
21403;DHT22;10862;51.886;17.078;2022-12-18T03:35:01;-5.30;99.90
21403;DHT22;10862;51.886;17.078;2022-12-18T03:37:28;-5.40;99.90
21403;DHT22;10862;51.886;17.078;2022-12-18T03:39:54;-5.40;99.90
21403;DHT22;10862;51.886;17.078;2022-12-18T03:47:28;-5.30;99.90
21403;DHT22;10862;51.886;17.078;2022-12-18T03:52:26;-5.30;99.90
21403;DHT22;10862;51.886;17.078;2022-12-18T03:54:54;-5.30;99.90
21403;DHT22;10862;51.886;17.078;2022-12-18T03:57:23;-5.20;99.90
21403;DHT22;10862;51.886;17.078;2022-12-18T04:00:07;-5.20;99.90
21403;DHT22;10862;51.886;17.078;2022-12-18T04:02:34;-5.10;99.90
21403;DHT22;10862;51.886;17.078;2022-12-18T04:05:05;-5.20;99.90
21403;DHT22;10862;51.886;17.078;2022-12-18T04:07:32;-5.20;99.90
21403;DHT22;10862;51.886;17.078;2022-12-18T04:10:00;-5.10;99.90
21403;DHT22;10862;51.886;17.078;2022-12-18T04:12:28;-5.00;99.90
21403;DHT22;10862;51.886;17.078;2022-12-18T04:14:54;-5.00;99.90
21403;DHT22;10862;51.886;17.078;2022-12-18T04:17:19;-5.00;99.90
21403;DHT22;10862;51.886;17.078;2022-12-18T04:19:45;-4.90;99.90
21403;DHT22;10862;51.886;17.078;2022-12-18T04:22:11;-5.00;99.90
21403;DHT22;10862;51.886;17.078;2022-12-18T04:24:36;-5.00;99.90
21403;DHT22;10862;51.886;17.078;2022-12-18T04:27:02;-5.00;99.90
21403;DHT22;10862;51.886;17.078;2022-12-18T04:29:28;-4.90;99.90
21403;DHT22;10862;51.886;17.078;2022-12-18T04:31:54;-4.90;99.90
21403;DHT22;10862;51.886;17.078;2022-12-18T04:34:20;-4.90;99.90
21403;DHT22;10862;51.886;17.078;2022-12-18T04:36:46;-5.00;99.90
21403;DHT22;10862;51.886;17.078;2022-12-18T04:39:12;-5.00;99.90
21403;DHT22;10862;51.886;17.078;2022-12-18T04:41:37;-5.10;99.90
21403;DHT22;10862;51.886;17.078;2022-12-18T04:44:04;-5.10;99.90
21403;DHT22;10862;51.886;17.078;2022-12-18T04:46:30;-5.10;99.90
21403;DHT22;10862;51.886;17.078;2022-12-18T04:48:55;-5.20;99.90
21403;DHT22;10862;51.886;17.078;2022-12-18T04:51:21;-5.20;99.90
21403;DHT22;10862;51.886;17.078;2022-12-18T04:53:46;-5.20;99.90
21403;DHT22;10862;51.886;17.078;2022-12-18T04:56:14;-5.10;99.90
21403;DHT22;10862;51.886;17.078;2022-12-18T04:58:41;-5.10;99.90
21403;DHT22;10862;51.886;17.078;2022-12-18T05:01:07;-5.10;99.90
21403;DHT22;10862;51.886;17.078;2022-12-18T05:03:33;-5.10;99.90
21403;DHT22;10862;51.886;17.078;2022-12-18T05:05:59;-5.20;99.90
21403;DHT22;10862;51.886;17.078;2022-12-18T05:08:24;-5.20;99.90
21403;DHT22;10862;51.886;17.078;2022-12-18T05:10:58;-5.10;99.90
21403;DHT22;10862;51.886;17.078;2022-12-18T05:13:24;-5.10;99.90
21403;DHT22;10862;51.886;17.078;2022-12-18T05:15:53;-5.20;99.90
21403;DHT22;10862;51.886;17.078;2022-12-18T05:18:19;-5.20;99.90
21403;DHT22;10862;51.886;17.078;2022-12-18T05:20:45;-5.20;99.90
21403;DHT22;10862;51.886;17.078;2022-12-18T05:23:10;-5.10;99.90
21403;DHT22;10862;51.886;17.078;2022-12-18T05:25:36;-5.10;99.90
21403;DHT22;10862;51.886;17.078;2022-12-18T05:28:01;-5.10;99.90
21403;DHT22;10862;51.886;17.078;2022-12-18T05:30:27;-5.10;99.90
21403;DHT22;10862;51.886;17.078;2022-12-18T05:32:53;-5.10;99.90
21403;DHT22;10862;51.886;17.078;2022-12-18T05:35:19;-5.00;99.90
21403;DHT22;10862;51.886;17.078;2022-12-18T05:37:44;-5.00;99.90
21403;DHT22;10862;51.886;17.078;2022-12-18T05:40:11;-5.00;99.90
21403;DHT22;10862;51.886;17.078;2022-12-18T05:42:37;-5.00;99.90
21403;DHT22;10862;51.886;17.078;2022-12-18T05:45:03;-5.00;99.90
21403;DHT22;10862;51.886;17.078;2022-12-18T05:47:29;-4.90;99.90
21403;DHT22;10862;51.886;17.078;2022-12-18T05:49:54;-4.90;99.90
21403;DHT22;10862;51.886;17.078;2022-12-18T05:52:20;-4.80;99.90
21403;DHT22;10862;51.886;17.078;2022-12-18T05:54:46;-4.70;99.90
21403;DHT22;10862;51.886;17.078;2022-12-18T05:57:12;-4.80;99.90
21403;DHT22;10862;51.886;17.078;2022-12-18T05:59:37;-4.80;99.90
21403;DHT22;10862;51.886;17.078;2022-12-18T06:02:03;-4.80;99.90
21403;DHT22;10862;51.886;17.078;2022-12-18T06:04:29;-4.80;99.90
21403;DHT22;10862;51.886;17.078;2022-12-18T06:06:54;-4.80;99.90
21403;DHT22;10862;51.886;17.078;2022-12-18T06:09:20;-4.80;99.90
21403;DHT22;10862;51.886;17.078;2022-12-18T06:11:46;-4.70;99.90
21403;DHT22;10862;51.886;17.078;2022-12-18T06:14:11;-4.70;99.90
21403;DHT22;10862;51.886;17.078;2022-12-18T06:16:37;-4.60;99.90
21403;DHT22;10862;51.886;17.078;2022-12-18T06:19:04;-4.70;99.90
21403;DHT22;10862;51.886;17.078;2022-12-18T06:21:30;-4.70;99.90
21403;DHT22;10862;51.886;17.078;2022-12-18T06:23:56;-4.70;99.90
21403;DHT22;10862;51.886;17.078;2022-12-18T06:26:22;-4.70;99.90
21403;DHT22;10862;51.886;17.078;2022-12-18T06:28:48;-4.60;99.90
21403;DHT22;10862;51.886;17.078;2022-12-18T06:31:13;-4.60;99.90
21403;DHT22;10862;51.886;17.078;2022-12-18T06:33:39;-4.60;99.90
21403;DHT22;10862;51.886;17.078;2022-12-18T06:36:11;-4.60;99.90
21403;DHT22;10862;51.886;17.078;2022-12-18T06:38:38;-4.50;99.90
21403;DHT22;10862;51.886;17.078;2022-12-18T06:41:15;-4.50;99.90
21403;DHT22;10862;51.886;17.078;2022-12-18T06:43:42;-4.50;99.90
21403;DHT22;10862;51.886;17.078;2022-12-18T06:46:08;-4.50;99.90
21403;DHT22;10862;51.886;17.078;2022-12-18T06:48:34;-4.40;99.90
21403;DHT22;10862;51.886;17.078;2022-12-18T06:51:00;-4.40;99.90
21403;DHT22;10862;51.886;17.078;2022-12-18T06:53:26;-4.30;99.90
21403;DHT22;10862;51.886;17.078;2022-12-18T06:55:52;-4.30;99.90
21403;DHT22;10862;51.886;17.078;2022-12-18T06:58:17;-4.40;99.90
21403;DHT22;10862;51.886;17.078;2022-12-18T07:00:43;-4.40;99.90
21403;DHT22;10862;51.886;17.078;2022-12-18T07:03:09;-4.40;99.90
21403;DHT22;10862;51.886;17.078;2022-12-18T07:05:40;-4.30;99.90
21403;DHT22;10862;51.886;17.078;2022-12-18T07:08:06;-4.30;99.90
21403;DHT22;10862;51.886;17.078;2022-12-18T07:10:31;-4.30;99.90
21403;DHT22;10862;51.886;17.078;2022-12-18T07:12:57;-4.40;99.90
21403;DHT22;10862;51.886;17.078;2022-12-18T07:15:23;-4.40;99.90
21403;DHT22;10862;51.886;17.078;2022-12-18T07:17:48;-4.40;99.90
21403;DHT22;10862;51.886;17.078;2022-12-18T07:20:14;-4.40;99.90
21403;DHT22;10862;51.886;17.078;2022-12-18T07:22:39;-4.30;99.90
21403;DHT22;10862;51.886;17.078;2022-12-18T07:25:06;-4.30;99.90
21403;DHT22;10862;51.886;17.078;2022-12-18T07:27:31;-4.20;99.90
21403;DHT22;10862;51.886;17.078;2022-12-18T07:29:57;-4.20;99.90
21403;DHT22;10862;51.886;17.078;2022-12-18T07:32:23;-4.20;99.90
21403;DHT22;10862;51.886;17.078;2022-12-18T07:34:48;-4.10;99.90
21403;DHT22;10862;51.886;17.078;2022-12-18T07:37:14;-4.10;99.90
21403;DHT22;10862;51.886;17.078;2022-12-18T07:39:40;-4.20;99.90
21403;DHT22;10862;51.886;17.078;2022-12-18T07:42:05;-4.20;99.90
21403;DHT22;10862;51.886;17.078;2022-12-18T07:44:50;-4.20;99.90
21403;DHT22;10862;51.886;17.078;2022-12-18T07:47:15;-4.10;99.90
21403;DHT22;10862;51.886;17.078;2022-12-18T07:49:41;-4.20;99.90
21403;DHT22;10862;51.886;17.078;2022-12-18T07:52:06;-4.20;99.90
21403;DHT22;10862;51.886;17.078;2022-12-18T07:54:32;-4.10;99.90
21403;DHT22;10862;51.886;17.078;2022-12-18T07:56:58;-4.10;99.90
21403;DHT22;10862;51.886;17.078;2022-12-18T07:59:23;-4.10;99.90
21403;DHT22;10862;51.886;17.078;2022-12-18T08:01:49;-4.30;99.90
21403;DHT22;10862;51.886;17.078;2022-12-18T08:04:15;-4.20;99.90
21403;DHT22;10862;51.886;17.078;2022-12-18T08:06:40;-4.20;99.90
21403;DHT22;10862;51.886;17.078;2022-12-18T08:09:06;-4.30;99.90
21403;DHT22;10862;51.886;17.078;2022-12-18T08:11:33;-4.20;99.90
21403;DHT22;10862;51.886;17.078;2022-12-18T08:13:59;-4.10;99.90
21403;DHT22;10862;51.886;17.078;2022-12-18T08:16:25;-4.10;99.90
21403;DHT22;10862;51.886;17.078;2022-12-18T08:18:52;-4.10;99.90
21403;DHT22;10862;51.886;17.078;2022-12-18T08:21:20;-4.10;99.90
21403;DHT22;10862;51.886;17.078;2022-12-18T08:23:49;-4.10;99.90
21403;DHT22;10862;51.886;17.078;2022-12-18T08:26:15;-4.00;99.90
21403;DHT22;10862;51.886;17.078;2022-12-18T08:28:41;-3.90;99.90
21403;DHT22;10862;51.886;17.078;2022-12-18T08:31:08;-4.00;99.90
21403;DHT22;10862;51.886;17.078;2022-12-18T08:33:34;-4.00;99.90
21403;DHT22;10862;51.886;17.078;2022-12-18T08:36:01;-4.00;99.90
21403;DHT22;10862;51.886;17.078;2022-12-18T08:38:27;-4.10;99.90
21403;DHT22;10862;51.886;17.078;2022-12-18T08:41:06;-4.00;99.90
21403;DHT22;10862;51.886;17.078;2022-12-18T08:43:32;-3.90;99.90
21403;DHT22;10862;51.886;17.078;2022-12-18T08:46:18;-3.80;99.90
21403;DHT22;10862;51.886;17.078;2022-12-18T08:48:44;-3.90;99.90
21403;DHT22;10862;51.886;17.078;2022-12-18T08:51:10;-3.80;99.90
21403;DHT22;10862;51.886;17.078;2022-12-18T08:53:36;-3.80;99.90
21403;DHT22;10862;51.886;17.078;2022-12-18T08:56:03;-3.80;99.90
21403;DHT22;10862;51.886;17.078;2022-12-18T08:58:29;-3.90;99.90
21403;DHT22;10862;51.886;17.078;2022-12-18T09:01:00;-3.90;99.90
21403;DHT22;10862;51.886;17.078;2022-12-18T09:03:27;-4.00;99.90
21403;DHT22;10862;51.886;17.078;2022-12-18T09:05:52;-4.00;99.90
21403;DHT22;10862;51.886;17.078;2022-12-18T09:08:18;-4.00;99.90
21403;DHT22;10862;51.886;17.078;2022-12-18T09:10:45;-4.00;99.90
21403;DHT22;10862;51.886;17.078;2022-12-18T09:13:12;-3.90;99.90
21403;DHT22;10862;51.886;17.078;2022-12-18T09:15:45;-3.70;99.90
21403;DHT22;10862;51.886;17.078;2022-12-18T09:18:12;-3.60;99.90
21403;DHT22;10862;51.886;17.078;2022-12-18T09:20:38;-3.80;99.90
21403;DHT22;10862;51.886;17.078;2022-12-18T09:23:05;-3.80;99.90
21403;DHT22;10862;51.886;17.078;2022-12-18T09:25:31;-3.90;99.90
21403;DHT22;10862;51.886;17.078;2022-12-18T09:27:59;-3.90;99.90
21403;DHT22;10862;51.886;17.078;2022-12-18T09:30:25;-3.90;99.90
21403;DHT22;10862;51.886;17.078;2022-12-18T09:32:51;-3.90;99.90
21403;DHT22;10862;51.886;17.078;2022-12-18T09:35:18;-3.80;99.90
21403;DHT22;10862;51.886;17.078;2022-12-18T09:37:44;-3.80;99.90
21403;DHT22;10862;51.886;17.078;2022-12-18T09:40:18;-3.80;99.90
21403;DHT22;10862;51.886;17.078;2022-12-18T09:43:04;-3.80;99.90
21403;DHT22;10862;51.886;17.078;2022-12-18T09:45:42;-3.80;99.90
21403;DHT22;10862;51.886;17.078;2022-12-18T09:48:42;-4.00;99.90
21403;DHT22;10862;51.886;17.078;2022-12-18T09:51:16;-3.90;99.90
21403;DHT22;10862;51.886;17.078;2022-12-18T09:53:53;-3.80;99.90
21403;DHT22;10862;51.886;17.078;2022-12-18T09:56:21;-3.80;99.90
21403;DHT22;10862;51.886;17.078;2022-12-18T09:58:58;-3.80;99.90
21403;DHT22;10862;51.886;17.078;2022-12-18T10:01:24;-3.90;99.90
21403;DHT22;10862;51.886;17.078;2022-12-18T10:03:50;-4.00;99.90
21403;DHT22;10862;51.886;17.078;2022-12-18T10:06:33;-4.10;99.90
21403;DHT22;10862;51.886;17.078;2022-12-18T10:12:32;-4.10;99.90
21403;DHT22;10862;51.886;17.078;2022-12-18T10:14:43;-3.90;99.90
21403;DHT22;10862;51.886;17.078;2022-12-18T10:17:25;-3.90;99.90
21403;DHT22;10862;51.886;17.078;2022-12-18T10:20:05;-4.00;99.90
21403;DHT22;10862;51.886;17.078;2022-12-18T10:28:16;-4.00;99.90
21403;DHT22;10862;51.886;17.078;2022-12-18T10:30:44;-4.00;99.90
21403;DHT22;10862;51.886;17.078;2022-12-18T10:33:23;-4.00;99.90
21403;DHT22;10862;51.886;17.078;2022-12-18T10:35:52;-4.00;99.90
21403;DHT22;10862;51.886;17.078;2022-12-18T10:51:26;-4.00;99.90
21403;DHT22;10862;51.886;17.078;2022-12-18T10:54:05;-4.00;99.90
21403;DHT22;10862;51.886;17.078;2022-12-18T10:56:34;-4.00;99.90
21403;DHT22;10862;51.886;17.078;2022-12-18T10:59:06;-4.00;99.90
21403;DHT22;10862;51.886;17.078;2022-12-18T11:01:58;-4.00;99.90
21403;DHT22;10862;51.886;17.078;2022-12-18T11:11:58;-3.80;99.90
21403;DHT22;10862;51.886;17.078;2022-12-18T11:14:32;-3.90;99.90
21403;DHT22;10862;51.886;17.078;2022-12-18T11:16:59;-3.90;99.90
21403;DHT22;10862;51.886;17.078;2022-12-18T11:19:37;-3.80;99.90
21403;DHT22;10862;51.886;17.078;2022-12-18T11:22:24;-3.70;99.90
21403;DHT22;10862;51.886;17.078;2022-12-18T11:27:22;-3.70;99.90
21403;DHT22;10862;51.886;17.078;2022-12-18T11:29:50;-3.70;99.90
21403;DHT22;10862;51.886;17.078;2022-12-18T11:32:38;-3.80;99.90
21403;DHT22;10862;51.886;17.078;2022-12-18T11:35:20;-3.70;99.90
21403;DHT22;10862;51.886;17.078;2022-12-18T11:37:54;-3.70;99.90
21403;DHT22;10862;51.886;17.078;2022-12-18T11:40:38;-3.70;99.90
21403;DHT22;10862;51.886;17.078;2022-12-18T11:43:18;-3.70;99.90
21403;DHT22;10862;51.886;17.078;2022-12-18T11:45:54;-3.70;99.90
21403;DHT22;10862;51.886;17.078;2022-12-18T11:48:25;-3.70;99.90
21403;DHT22;10862;51.886;17.078;2022-12-18T11:50:57;-3.70;99.90
21403;DHT22;10862;51.886;17.078;2022-12-18T11:53:25;-3.50;99.90
21403;DHT22;10862;51.886;17.078;2022-12-18T12:06:36;-3.80;99.90
21403;DHT22;10862;51.886;17.078;2022-12-18T12:09:10;-3.80;99.90
21403;DHT22;10862;51.886;17.078;2022-12-18T12:11:56;-3.90;99.90
21403;DHT22;10862;51.886;17.078;2022-12-18T12:14:32;-3.80;99.90
21403;DHT22;10862;51.886;17.078;2022-12-18T12:20:44;-3.90;99.90
21403;DHT22;10862;51.886;17.078;2022-12-18T12:23:33;-3.80;99.90
21403;DHT22;10862;51.886;17.078;2022-12-18T12:26:08;-3.80;99.90
21403;DHT22;10862;51.886;17.078;2022-12-18T12:39:20;-3.80;99.90
21403;DHT22;10862;51.886;17.078;2022-12-18T12:41:47;-3.80;99.90
21403;DHT22;10862;51.886;17.078;2022-12-18T12:44:35;-3.70;99.90
21403;DHT22;10862;51.886;17.078;2022-12-18T12:47:13;-3.70;99.90
21403;DHT22;10862;51.886;17.078;2022-12-18T12:49:40;-3.60;99.90
21403;DHT22;10862;51.886;17.078;2022-12-18T12:52:15;-3.70;99.90
21403;DHT22;10862;51.886;17.078;2022-12-18T12:54:43;-3.80;99.90
21403;DHT22;10862;51.886;17.078;2022-12-18T12:57:16;-3.90;99.90
21403;DHT22;10862;51.886;17.078;2022-12-18T13:08:03;-3.90;99.90
21403;DHT22;10862;51.886;17.078;2022-12-18T13:10:34;-3.90;99.90
21403;DHT22;10862;51.886;17.078;2022-12-18T13:15:38;-3.90;99.90
21403;DHT22;10862;51.886;17.078;2022-12-18T13:26:27;-3.90;99.90
21403;DHT22;10862;51.886;17.078;2022-12-18T13:34:22;-3.80;99.90
21403;DHT22;10862;51.886;17.078;2022-12-18T13:36:48;-4.00;99.90
21403;DHT22;10862;51.886;17.078;2022-12-18T13:41:40;-4.00;99.90
21403;DHT22;10862;51.886;17.078;2022-12-18T13:44:40;-4.00;99.90
21403;DHT22;10862;51.886;17.078;2022-12-18T13:49:50;-3.90;99.90
21403;DHT22;10862;51.886;17.078;2022-12-18T13:52:22;-3.90;99.90
21403;DHT22;10862;51.886;17.078;2022-12-18T13:54:55;-4.00;99.90
21403;DHT22;10862;51.886;17.078;2022-12-18T13:59:53;-4.20;99.90
21403;DHT22;10862;51.886;17.078;2022-12-18T14:02:26;-4.30;99.90
21403;DHT22;10862;51.886;17.078;2022-12-18T14:04:53;-4.10;99.90
21403;DHT22;10862;51.886;17.078;2022-12-18T14:07:22;-4.10;99.90
21403;DHT22;10862;51.886;17.078;2022-12-18T14:10:01;-4.20;99.90
21403;DHT22;10862;51.886;17.078;2022-12-18T14:12:30;-4.00;99.90
21403;DHT22;10862;51.886;17.078;2022-12-18T14:15:38;-4.20;99.90
21403;DHT22;10862;51.886;17.078;2022-12-18T14:18:29;-4.30;99.90
21403;DHT22;10862;51.886;17.078;2022-12-18T14:20:58;-4.30;99.90
21403;DHT22;10862;51.886;17.078;2022-12-18T14:23:39;-4.40;99.90
21403;DHT22;10862;51.886;17.078;2022-12-18T14:26:28;-4.40;99.90
21403;DHT22;10862;51.886;17.078;2022-12-18T14:28:58;-4.40;99.90
21403;DHT22;10862;51.886;17.078;2022-12-18T14:31:28;-4.50;99.90
21403;DHT22;10862;51.886;17.078;2022-12-18T14:33:54;-4.50;99.90
21403;DHT22;10862;51.886;17.078;2022-12-18T14:36:28;-4.60;99.90
21403;DHT22;10862;51.886;17.078;2022-12-18T14:38:58;-4.60;99.90
21403;DHT22;10862;51.886;17.078;2022-12-18T14:41:24;-4.60;99.90
21403;DHT22;10862;51.886;17.078;2022-12-18T14:43:51;-4.60;99.90
21403;DHT22;10862;51.886;17.078;2022-12-18T14:46:35;-4.60;99.90
21403;DHT22;10862;51.886;17.078;2022-12-18T14:51:48;-4.60;99.90
21403;DHT22;10862;51.886;17.078;2022-12-18T14:54:16;-4.60;99.90
21403;DHT22;10862;51.886;17.078;2022-12-18T14:56:51;-4.50;99.90
21403;DHT22;10862;51.886;17.078;2022-12-18T14:59:23;-4.60;99.90
21403;DHT22;10862;51.886;17.078;2022-12-18T15:04:34;-4.80;99.90
21403;DHT22;10862;51.886;17.078;2022-12-18T15:09:32;-4.80;99.90
21403;DHT22;10862;51.886;17.078;2022-12-18T15:11:58;-4.70;99.90
21403;DHT22;10862;51.886;17.078;2022-12-18T15:17:26;-4.70;99.90
21403;DHT22;10862;51.886;17.078;2022-12-18T15:19:58;-4.70;99.90
21403;DHT22;10862;51.886;17.078;2022-12-18T15:22:30;-4.70;99.90
21403;DHT22;10862;51.886;17.078;2022-12-18T15:24:57;-4.80;99.90
21403;DHT22;10862;51.886;17.078;2022-12-18T15:27:36;-4.80;99.90
21403;DHT22;10862;51.886;17.078;2022-12-18T15:32:38;-4.90;99.90
21403;DHT22;10862;51.886;17.078;2022-12-18T15:37:33;-4.90;99.90
21403;DHT22;10862;51.886;17.078;2022-12-18T15:39:59;-4.90;99.90
21403;DHT22;10862;51.886;17.078;2022-12-18T15:42:24;-4.90;99.90
21403;DHT22;10862;51.886;17.078;2022-12-18T15:45:12;-4.90;99.90
21403;DHT22;10862;51.886;17.078;2022-12-18T15:47:38;-4.90;99.90
21403;DHT22;10862;51.886;17.078;2022-12-18T15:50:04;-5.00;99.90
21403;DHT22;10862;51.886;17.078;2022-12-18T15:52:32;-4.90;99.90
21403;DHT22;10862;51.886;17.078;2022-12-18T15:55:01;-4.90;99.90
21403;DHT22;10862;51.886;17.078;2022-12-18T15:57:45;-4.90;99.90
21403;DHT22;10862;51.886;17.078;2022-12-18T16:00:12;-4.90;99.90
21403;DHT22;10862;51.886;17.078;2022-12-18T16:02:38;-4.80;99.90
21403;DHT22;10862;51.886;17.078;2022-12-18T16:05:13;-4.80;99.90
21403;DHT22;10862;51.886;17.078;2022-12-18T16:07:39;-5.00;99.90
21403;DHT22;10862;51.886;17.078;2022-12-18T16:10:05;-5.10;99.90
21403;DHT22;10862;51.886;17.078;2022-12-18T16:12:31;-5.10;99.90
21403;DHT22;10862;51.886;17.078;2022-12-18T16:14:57;-5.10;99.90
21403;DHT22;10862;51.886;17.078;2022-12-18T16:17:22;-5.00;99.90
21403;DHT22;10862;51.886;17.078;2022-12-18T16:19:48;-5.00;99.90
21403;DHT22;10862;51.886;17.078;2022-12-18T16:22:25;-5.00;99.90
21403;DHT22;10862;51.886;17.078;2022-12-18T16:24:53;-4.90;99.90
21403;DHT22;10862;51.886;17.078;2022-12-18T16:27:20;-5.00;99.90
21403;DHT22;10862;51.886;17.078;2022-12-18T16:29:46;-5.10;99.90
21403;DHT22;10862;51.886;17.078;2022-12-18T16:32:17;-5.10;99.90
21403;DHT22;10862;51.886;17.078;2022-12-18T16:34:43;-5.10;99.90
21403;DHT22;10862;51.886;17.078;2022-12-18T16:37:11;-5.20;99.90
21403;DHT22;10862;51.886;17.078;2022-12-18T16:39:38;-5.20;99.90
21403;DHT22;10862;51.886;17.078;2022-12-18T16:42:06;-5.10;99.90
21403;DHT22;10862;51.886;17.078;2022-12-18T16:44:35;-5.10;99.90
21403;DHT22;10862;51.886;17.078;2022-12-18T16:47:00;-5.10;99.90
21403;DHT22;10862;51.886;17.078;2022-12-18T16:49:27;-5.10;99.90
21403;DHT22;10862;51.886;17.078;2022-12-18T16:51:53;-5.20;99.90
21403;DHT22;10862;51.886;17.078;2022-12-18T16:54:19;-5.20;99.90
21403;DHT22;10862;51.886;17.078;2022-12-18T16:56:46;-5.30;99.90
21403;DHT22;10862;51.886;17.078;2022-12-18T16:59:14;-5.30;99.90
21403;DHT22;10862;51.886;17.078;2022-12-18T17:01:40;-5.30;99.90
21403;DHT22;10862;51.886;17.078;2022-12-18T17:04:07;-5.30;99.90
21403;DHT22;10862;51.886;17.078;2022-12-18T17:06:38;-5.30;99.90
21403;DHT22;10862;51.886;17.078;2022-12-18T17:09:05;-5.30;99.90
21403;DHT22;10862;51.886;17.078;2022-12-18T17:11:33;-5.30;99.90
21403;DHT22;10862;51.886;17.078;2022-12-18T17:14:04;-5.30;99.90
21403;DHT22;10862;51.886;17.078;2022-12-18T17:16:30;-5.30;99.90
21403;DHT22;10862;51.886;17.078;2022-12-18T17:18:56;-5.30;99.90
21403;DHT22;10862;51.886;17.078;2022-12-18T17:21:21;-5.30;99.90
21403;DHT22;10862;51.886;17.078;2022-12-18T17:23:47;-5.30;99.90
21403;DHT22;10862;51.886;17.078;2022-12-18T17:26:13;-5.30;99.90
21403;DHT22;10862;51.886;17.078;2022-12-18T17:28:40;-5.40;99.90
21403;DHT22;10862;51.886;17.078;2022-12-18T17:31:18;-5.40;99.90
21403;DHT22;10862;51.886;17.078;2022-12-18T17:33:44;-5.40;99.90
21403;DHT22;10862;51.886;17.078;2022-12-18T17:36:10;-5.30;99.90
21403;DHT22;10862;51.886;17.078;2022-12-18T17:38:37;-5.30;99.90
21403;DHT22;10862;51.886;17.078;2022-12-18T17:41:08;-5.40;99.90